createdAt,value
2023-04-11T00:01:39.223Z,97.95
2023-04-11T00:04:11.226Z,94.35
2023-04-11T00:06:44.210Z,93.00
2023-04-11T00:09:15.003Z,97.20
2023-04-11T00:11:48.118Z,92.28
2023-04-11T00:14:19.977Z,96.05
2023-04-11T00:17:03.345Z,106.43
2023-04-11T00:19:34.515Z,101.82
2023-04-11T00:22:06.345Z,108.85
2023-04-11T00:24:37.400Z,101.53
2023-04-11T00:27:10.679Z,103.00
2023-04-11T00:29:41.613Z,110.63
2023-04-11T00:32:15.773Z,101.32
2023-04-11T00:34:54.384Z,100.28
2023-04-11T00:37:25.603Z,99.03
2023-04-11T00:40:09.204Z,99.43
2023-04-11T00:42:43.769Z,101.47
2023-04-11T00:45:14.915Z,104.45
2023-04-11T00:47:46.706Z,101.78
2023-04-11T00:50:17.604Z,104.05
2023-04-11T00:52:51.587Z,111.93
2023-04-11T00:55:23.753Z,111.90
2023-04-11T00:57:59.229Z,82.20
2023-04-11T01:00:30.518Z,111.57
2023-04-11T01:03:02.040Z,109.30
2023-04-11T01:05:34.693Z,105.43
2023-04-11T01:08:09.184Z,100.50
2023-04-11T01:10:42.859Z,98.53
2023-04-11T01:13:16.272Z,112.63
2023-04-11T01:15:48.004Z,105.03
2023-04-11T01:18:21.154Z,111.25
2023-04-11T01:20:51.853Z,115.63
2023-04-11T01:23:26.552Z,102.90
2023-04-11T01:25:59.179Z,119.28
2023-04-11T01:28:30.872Z,113.05
2023-04-11T01:31:01.241Z,119.63
2023-04-11T01:33:36.353Z,117.47
2023-04-11T01:36:10.477Z,112.07
2023-04-11T01:38:42.801Z,120.43
2023-04-11T01:41:14.752Z,118.72
2023-04-11T01:43:48.274Z,119.90
2023-04-11T01:46:20.340Z,122.20
2023-04-11T01:48:54.813Z,111.72
2023-04-11T01:51:25.701Z,133.05
2023-04-11T01:53:58.239Z,119.20
2023-04-11T01:56:29.068Z,118.35
2023-04-11T01:59:00.252Z,112.30
2023-04-11T02:01:30.906Z,113.15
2023-04-11T02:04:02.257Z,120.45
2023-04-11T02:06:36.009Z,107.85
2023-04-11T02:09:08.396Z,120.80
2023-04-11T02:11:41.554Z,119.27
2023-04-11T02:14:16.506Z,120.72
2023-04-11T02:16:57.175Z,115.30
2023-04-11T02:19:28.241Z,123.13
2023-04-11T02:22:09.089Z,124.15
2023-04-11T02:24:41.771Z,115.50
2023-04-11T02:27:13.037Z,119.00
2023-04-11T02:29:45.640Z,121.95
2023-04-11T02:32:21.472Z,115.65
2023-04-11T02:34:52.565Z,110.95
2023-04-11T02:37:28.489Z,109.20
2023-04-11T02:40:05.493Z,117.72
2023-04-11T02:42:35.964Z,124.45
2023-04-11T02:45:10.924Z,111.45
2023-04-11T02:47:44.459Z,112.60
2023-04-11T02:50:16.533Z,110.00
2023-04-11T02:52:55.821Z,106.75
2023-04-11T02:55:33.448Z,118.57
2023-04-11T02:58:03.939Z,119.40
2023-04-11T03:00:39.083Z,115.82
2023-04-11T03:03:13.563Z,121.50
2023-04-11T03:05:49.345Z,125.50
2023-04-11T03:08:26.092Z,114.35
2023-04-11T03:11:01.861Z,117.00
2023-04-11T03:13:37.527Z,122.30
2023-04-11T03:16:13.888Z,116.90
2023-04-11T03:18:44.779Z,110.65
2023-04-11T03:21:17.445Z,123.07
2023-04-11T03:23:49.762Z,118.20
2023-04-11T03:26:27.605Z,109.25
2023-04-11T03:29:02.822Z,125.28
2023-04-11T03:31:42.630Z,119.25
2023-04-11T03:34:13.257Z,119.55
2023-04-11T03:36:46.078Z,124.13
2023-04-11T03:39:17.224Z,117.00
2023-04-11T03:41:49.597Z,140.30
2023-04-11T03:44:20.628Z,117.45
2023-04-11T03:46:54.084Z,124.05
2023-04-11T03:49:24.628Z,126.45
2023-04-11T03:51:59.871Z,132.85
2023-04-11T03:54:34.850Z,119.55
2023-04-11T03:57:08.483Z,117.95
2023-04-11T03:59:42.078Z,115.10
2023-04-11T04:02:18.084Z,113.18
2023-04-11T04:04:59.018Z,115.40
2023-04-11T04:07:39.688Z,110.93
2023-04-11T04:10:17.793Z,112.43
2023-04-11T04:13:01.793Z,105.43
2023-04-11T04:15:45.798Z,113.10
2023-04-11T04:18:18.474Z,101.30
2023-04-11T04:20:52.003Z,110.63
2023-04-11T04:23:26.956Z,107.00
2023-04-11T04:26:17.873Z,103.78
2023-04-11T04:29:04.851Z,108.13
2023-04-11T04:31:53.339Z,101.63
2023-04-11T04:34:33.662Z,102.43
2023-04-11T04:37:06.442Z,113.07
2023-04-11T04:39:45.159Z,109.10
2023-04-11T04:42:25.469Z,107.93
2023-04-11T04:45:04.653Z,100.72
2023-04-11T04:47:38.831Z,98.22
2023-04-11T04:50:11.759Z,105.93
2023-04-11T04:55:16.966Z,100.60
2023-04-11T04:57:47.663Z,102.80
2023-04-11T05:00:23.292Z,112.30
2023-04-11T05:02:56.697Z,102.95
2023-04-11T05:05:33.185Z,99.72
2023-04-11T05:08:04.290Z,97.72
2023-04-11T05:10:37.485Z,109.97
2023-04-11T05:13:10.303Z,106.22
2023-04-11T05:15:57.903Z,93.95
2023-04-11T05:18:31.442Z,98.75
2023-04-11T05:21:05.915Z,98.75
2023-04-11T05:23:41.568Z,101.05
2023-04-11T05:26:13.578Z,102.40
2023-04-11T05:28:45.303Z,100.28
2023-04-11T05:31:26.668Z,98.75
2023-04-11T05:33:59.029Z,95.65
2023-04-11T05:36:33.144Z,94.90
2023-04-11T05:39:07.075Z,99.55
2023-04-11T05:41:37.748Z,92.18
2023-04-11T05:44:09.045Z,101.15
2023-04-11T05:46:41.451Z,93.93
2023-04-11T05:49:19.763Z,96.72
2023-04-11T05:51:50.790Z,96.80
2023-04-11T05:54:34.424Z,101.53
2023-04-11T05:57:08.199Z,96.53
2023-04-11T05:59:38.727Z,85.25
2023-04-11T06:02:29.620Z,96.97
2023-04-11T06:05:05.407Z,89.15
2023-04-11T06:07:37.825Z,93.68
2023-04-11T06:10:11.715Z,93.43
2023-04-11T06:12:42.599Z,90.75
2023-04-11T06:15:14.064Z,92.10
2023-04-11T06:17:48.584Z,98.97
2023-04-11T06:20:23.086Z,93.35
2023-04-11T06:22:53.546Z,91.18
2023-04-11T06:25:26.543Z,86.30
2023-04-11T06:27:56.905Z,85.45
2023-04-11T06:30:27.910Z,81.50
2023-04-11T06:33:00.177Z,82.65
2023-04-11T06:35:31.954Z,80.80
2023-04-11T06:38:02.590Z,83.55
2023-04-11T06:40:35.135Z,78.22
2023-04-11T06:43:05.803Z,79.75
2023-04-11T06:45:41.341Z,79.13
2023-04-11T06:48:13.299Z,79.85
2023-04-11T06:50:45.770Z,74.57
2023-04-11T06:53:16.388Z,82.85
2023-04-11T06:55:51.540Z,76.78
2023-04-11T06:58:22.858Z,79.68
2023-04-11T07:00:53.539Z,80.40
2023-04-11T07:03:26.879Z,88.10
2023-04-11T07:05:57.551Z,83.50
2023-04-11T07:08:28.369Z,84.97
2023-04-11T07:11:00.161Z,93.03
2023-04-11T07:13:30.868Z,92.63
2023-04-11T07:16:01.847Z,108.72
2023-04-11T07:18:33.669Z,120.97
2023-04-11T07:21:04.346Z,105.28
2023-04-11T07:23:35.132Z,92.90
2023-04-11T07:26:05.913Z,87.38
2023-04-11T07:28:38.290Z,87.70
2023-04-11T07:31:10.926Z,88.57
2023-04-11T07:33:45.456Z,91.32
2023-04-11T07:36:16.427Z,84.72
2023-04-11T07:38:47.715Z,86.25
2023-04-11T07:41:18.908Z,83.50
2023-04-11T07:43:51.452Z,78.57
2023-04-11T07:46:23.261Z,82.40
2023-04-11T07:48:55.241Z,82.18
2023-04-11T07:51:29.577Z,76.68
2023-04-11T07:54:00.466Z,74.57
2023-04-11T07:56:34.285Z,80.68
2023-04-11T07:59:04.966Z,80.10
2023-04-11T08:01:36.622Z,77.57
2023-04-11T08:04:09.436Z,81.50
2023-04-11T08:06:40.164Z,78.75
2023-04-11T08:09:11.082Z,81.80
2023-04-11T08:11:41.827Z,76.95
2023-04-11T08:14:12.155Z,80.88
2023-04-11T08:16:43.277Z,80.88
2023-04-11T08:19:15.450Z,78.93
2023-04-11T08:21:46.291Z,73.00
2023-04-11T08:24:17.854Z,77.78
2023-04-11T08:26:49.778Z,71.78
2023-04-11T08:29:19.948Z,70.13
2023-04-11T08:31:50.478Z,75.25
2023-04-11T08:34:22.171Z,68.05
2023-04-11T08:36:53.049Z,77.75
2023-04-11T08:39:23.241Z,66.97
2023-04-11T08:41:54.305Z,64.78
2023-04-11T08:44:25.774Z,69.75
2023-04-11T08:46:56.645Z,65.30
2023-04-11T08:49:28.235Z,59.40
2023-04-11T08:51:59.302Z,61.92
2023-04-11T08:54:29.587Z,58.88
2023-04-11T08:57:00.004Z,51.72
2023-04-11T08:59:30.168Z,59.55
2023-04-11T09:02:09.582Z,60.03
2023-04-11T09:04:47.543Z,49.75
2023-04-11T09:07:19.326Z,61.50
2023-04-11T09:09:50.154Z,49.40
2023-04-11T09:12:30.427Z,56.78
2023-04-11T09:15:18.353Z,56.55
2023-04-11T09:17:49.988Z,49.85
2023-04-11T09:20:26.248Z,55.78
2023-04-11T09:22:58.970Z,44.00
2023-04-11T09:25:29.870Z,48.50
2023-04-11T09:28:14.588Z,48.97
2023-04-11T09:30:52.383Z,45.53
2023-04-11T09:33:25.612Z,48.10
2023-04-11T09:35:58.360Z,47.83
2023-04-11T09:38:32.028Z,42.33
2023-04-11T09:41:03.795Z,46.97
2023-04-11T09:43:55.481Z,45.72
2023-04-11T09:46:26.275Z,49.20
2023-04-11T09:48:57.170Z,43.88
2023-04-11T09:51:36.654Z,41.15
2023-04-11T09:54:10.153Z,37.63
2023-04-11T09:56:40.542Z,37.73
2023-04-11T09:59:11.230Z,35.55
2023-04-11T10:01:42.390Z,30.98
2023-04-11T10:04:13.926Z,33.05
2023-04-11T10:07:04.698Z,37.45
2023-04-11T10:09:38.866Z,34.08
2023-04-11T10:12:09.685Z,35.10
2023-04-11T10:14:49.333Z,34.53
2023-04-11T10:17:24.390Z,32.08
2023-04-11T10:19:57.477Z,35.97
2023-04-11T10:23:08.549Z,33.70
2023-04-11T10:25:55.435Z,34.47
2023-04-11T10:28:39.454Z,34.78
2023-04-11T10:31:19.515Z,33.88
2023-04-11T10:34:15.392Z,31.23
2023-04-11T10:37:06.119Z,28.92
2023-04-11T10:40:12.753Z,30.88
2023-04-11T10:42:44.669Z,29.33
2023-04-11T10:45:22.077Z,34.92
2023-04-11T10:48:11.673Z,21.38
2023-04-11T10:50:44.698Z,26.95
2023-04-11T10:56:09.065Z,25.77
2023-04-11T10:58:41.101Z,26.67
2023-04-11T11:01:31.464Z,24.80
2023-04-11T11:04:07.939Z,20.25
2023-04-11T11:06:47.297Z,24.80
2023-04-11T11:09:24.280Z,21.60
2023-04-11T11:12:12.106Z,21.83
2023-04-11T11:14:45.399Z,20.35
2023-04-11T11:17:17.755Z,24.27
2023-04-11T11:19:49.458Z,22.30
2023-04-11T11:22:26.514Z,18.98
2023-04-11T11:25:08.652Z,27.30
2023-04-11T11:27:40.673Z,24.70
2023-04-11T11:30:15.953Z,23.08
2023-04-11T11:32:47.589Z,21.90
2023-04-11T11:35:20.565Z,9.37
2023-04-11T11:37:53.810Z,9.43
2023-04-11T11:40:24.616Z,5.35
2023-04-11T11:42:56.342Z,7.50
2023-04-11T11:45:27.832Z,11.88
2023-04-11T11:47:58.404Z,9.80
2023-04-11T11:50:33.020Z,10.40
2023-04-11T11:53:15.310Z,9.88
2023-04-11T11:55:46.105Z,9.30
2023-04-11T11:58:19.684Z,9.77
2023-04-11T12:00:53.050Z,6.32
2023-04-11T12:03:25.781Z,12.57
2023-04-11T12:05:58.424Z,14.70
2023-04-11T12:08:29.243Z,17.95
2023-04-11T12:10:59.794Z,15.57
2023-04-11T12:13:33.775Z,15.48
2023-04-11T12:16:04.332Z,20.15
2023-04-11T12:18:35.598Z,14.35
2023-04-11T12:21:06.534Z,13.05
2023-04-11T12:23:36.734Z,16.33
2023-04-11T12:26:09.622Z,16.80
2023-04-11T12:28:41.376Z,22.15
2023-04-11T12:31:12.628Z,19.63
2023-04-11T12:33:42.915Z,14.73
2023-04-11T12:36:14.435Z,18.35
2023-04-11T12:38:45.120Z,12.18
2023-04-11T12:41:31.626Z,12.52
2023-04-11T12:44:04.250Z,11.05
2023-04-11T12:46:34.844Z,11.93
2023-04-11T12:49:05.176Z,10.00
2023-04-11T12:51:36.122Z,8.30
2023-04-11T12:54:06.423Z,9.85
2023-04-11T12:56:36.867Z,9.68
2023-04-11T12:59:08.462Z,12.13
2023-04-11T13:01:39.557Z,9.57
2023-04-11T13:04:10.151Z,8.40
2023-04-11T13:06:41.117Z,10.43
2023-04-11T13:09:13.422Z,18.65
2023-04-11T13:11:44.975Z,11.88
2023-04-11T13:14:16.749Z,10.18
2023-04-11T13:16:50.088Z,10.18
2023-04-11T13:19:24.104Z,10.40
2023-04-11T13:21:55.512Z,7.43
2023-04-11T13:24:28.721Z,7.60
2023-04-11T13:27:00.914Z,5.78
2023-04-11T13:29:36.628Z,6.88
2023-04-11T13:32:08.502Z,7.00
2023-04-11T13:34:40.381Z,8.95
2023-04-11T13:37:12.283Z,8.00
2023-04-11T13:39:44.848Z,11.40
2023-04-11T13:42:28.158Z,8.05
2023-04-11T13:45:00.777Z,11.95
2023-04-11T13:47:38.873Z,10.95
2023-04-11T13:50:12.039Z,8.95
2023-04-11T13:55:15.477Z,7.90
2023-04-11T14:00:25.910Z,7.10
2023-04-11T14:02:57.068Z,8.13
2023-04-11T14:05:29.859Z,6.18
2023-04-11T14:08:08.846Z,6.32
2023-04-11T14:10:39.142Z,8.30
2023-04-11T14:13:11.614Z,15.80
2023-04-11T14:15:43.639Z,6.13
2023-04-11T14:18:14.733Z,7.32
2023-04-11T14:20:45.344Z,8.15
2023-04-11T14:23:16.727Z,8.48
2023-04-11T14:25:46.807Z,7.38
2023-04-11T14:28:18.684Z,7.78
2023-04-11T14:30:50.677Z,8.57
2023-04-11T14:33:21.340Z,9.13
2023-04-11T14:35:52.564Z,7.55
2023-04-11T14:38:23.239Z,8.02
2023-04-11T14:40:53.354Z,11.93
2023-04-11T14:43:24.205Z,9.93
2023-04-11T14:45:58.674Z,11.45
2023-04-11T14:48:29.601Z,9.90
2023-04-11T14:51:03.524Z,11.18
2023-04-11T14:53:34.633Z,13.05
2023-04-11T14:56:07.622Z,11.68
2023-04-11T14:58:38.402Z,15.65
2023-04-11T15:01:10.393Z,14.68
2023-04-11T15:03:41.126Z,16.17
2023-04-11T15:06:12.348Z,14.25
2023-04-11T15:08:43.577Z,11.00
2023-04-11T15:11:18.704Z,12.57
2023-04-11T15:13:53.314Z,15.25
2023-04-11T15:16:25.189Z,8.75
2023-04-11T15:18:55.769Z,10.10
2023-04-11T15:21:27.444Z,8.07
2023-04-11T15:23:58.139Z,11.00
2023-04-11T15:26:30.161Z,9.48
2023-04-11T15:29:00.900Z,10.90
2023-04-11T15:31:32.706Z,8.70
2023-04-11T15:34:04.258Z,11.15
2023-04-11T15:36:34.514Z,11.50
2023-04-11T15:39:05.243Z,16.08
2023-04-11T15:41:39.143Z,8.35
2023-04-11T15:44:10.016Z,7.82
2023-04-11T15:46:41.969Z,11.05
2023-04-11T15:49:12.482Z,8.93
2023-04-11T15:51:42.962Z,10.40
2023-04-11T15:54:13.558Z,10.50
2023-04-11T15:56:43.817Z,11.10
2023-04-11T15:59:15.725Z,8.70
2023-04-11T16:01:47.637Z,10.38
2023-04-11T16:04:19.948Z,15.13
2023-04-11T16:06:50.243Z,14.20
2023-04-11T16:09:20.916Z,10.23
2023-04-11T16:11:51.252Z,12.55
2023-04-11T16:14:21.772Z,11.98
2023-04-11T16:16:54.274Z,11.85
2023-04-11T16:19:25.216Z,13.02
2023-04-11T16:21:55.667Z,5.90
2023-04-11T16:24:26.494Z,8.55
2023-04-11T16:26:57.521Z,7.20
2023-04-11T16:29:28.280Z,6.47
2023-04-11T16:32:02.605Z,7.72
2023-04-11T16:34:33.417Z,9.85
2023-04-11T16:37:04.048Z,6.35
2023-04-11T16:39:34.736Z,6.32
2023-04-11T16:42:05.723Z,5.03
2023-04-11T16:44:36.590Z,4.88
2023-04-11T16:47:08.693Z,5.78
2023-04-11T16:49:40.909Z,4.47
2023-04-11T16:52:11.711Z,4.60
2023-04-11T16:54:42.789Z,3.90
2023-04-11T16:57:14.407Z,6.82
2023-04-11T16:59:46.376Z,4.65
2023-04-11T17:02:18.568Z,3.60
2023-04-11T17:04:49.489Z,5.25
2023-04-11T17:07:19.930Z,3.88
2023-04-11T17:09:50.547Z,6.57
2023-04-11T17:12:21.131Z,4.85
2023-04-11T17:14:52.826Z,5.13
2023-04-11T17:17:25.277Z,5.53
2023-04-11T17:19:57.518Z,7.95
2023-04-11T17:22:28.508Z,6.10
2023-04-11T17:25:00.136Z,6.13
2023-04-11T17:27:31.965Z,7.10
2023-04-11T17:30:04.115Z,9.88
2023-04-11T17:32:38.262Z,7.45
2023-04-11T17:35:10.937Z,6.07
2023-04-11T17:37:41.589Z,8.43
2023-04-11T17:40:15.003Z,8.20
2023-04-11T17:42:47.141Z,7.68
2023-04-11T17:45:19.354Z,7.90
2023-04-11T17:47:55.093Z,8.88
2023-04-11T17:50:28.963Z,9.25
2023-04-11T17:55:30.900Z,6.18
2023-04-11T17:58:01.383Z,10.60
2023-04-11T18:00:36.713Z,7.45
2023-04-11T18:03:18.378Z,9.02
2023-04-11T18:05:51.157Z,7.72
2023-04-11T18:08:28.731Z,6.30
2023-04-11T18:11:10.668Z,6.60
2023-04-11T18:13:44.046Z,15.60
2023-04-11T18:16:17.494Z,5.85
2023-04-11T18:18:50.705Z,8.90
2023-04-11T18:21:22.594Z,10.68
2023-04-11T18:23:53.039Z,5.07
2023-04-11T18:26:25.406Z,4.75
2023-04-11T18:28:56.201Z,9.27
2023-04-11T18:31:29.379Z,3.90
2023-04-11T18:34:05.742Z,3.22
2023-04-11T18:36:37.686Z,3.85
2023-04-11T18:39:09.472Z,2.80
2023-04-11T18:41:41.044Z,5.07
2023-04-11T18:44:12.105Z,2.58
2023-04-11T18:46:44.392Z,1.88
2023-04-11T18:49:18.042Z,3.13
2023-04-11T18:51:50.296Z,2.37
2023-04-11T18:54:23.182Z,3.25
2023-04-11T18:56:56.684Z,2.33
2023-04-11T18:59:29.666Z,3.63
2023-04-11T19:02:01.756Z,4.43
2023-04-11T19:04:36.537Z,2.75
2023-04-11T19:07:08.468Z,2.95
2023-04-11T19:09:39.575Z,4.05
2023-04-11T19:12:11.029Z,3.20
2023-04-11T19:14:42.316Z,7.55
2023-04-11T19:17:14.437Z,5.55
2023-04-11T19:19:46.413Z,6.40
2023-04-11T19:22:17.433Z,7.17
2023-04-11T19:24:49.330Z,5.85
2023-04-11T19:27:24.198Z,4.93
2023-04-11T19:29:54.634Z,5.22
2023-04-11T19:32:25.797Z,4.88
2023-04-11T19:34:58.831Z,5.10
2023-04-11T19:37:30.492Z,5.60
2023-04-11T19:40:01.627Z,5.97
2023-04-11T19:42:33.152Z,6.53
2023-04-11T19:45:04.314Z,9.82
2023-04-11T19:47:36.123Z,5.88
2023-04-11T19:50:12.154Z,8.77
2023-04-11T19:52:44.381Z,7.38
2023-04-11T19:55:15.182Z,8.15
2023-04-11T19:57:46.482Z,6.72
2023-04-11T20:00:18.286Z,6.63
2023-04-11T20:02:51.232Z,7.97
2023-04-11T20:05:24.004Z,7.65
2023-04-11T20:07:55.490Z,7.85
2023-04-11T20:10:26.705Z,10.10
2023-04-11T20:12:58.833Z,7.20
2023-04-11T20:15:30.498Z,9.48
2023-04-11T20:18:01.841Z,8.57
2023-04-11T20:20:37.126Z,10.75
2023-04-11T20:23:09.012Z,6.90
2023-04-11T20:25:40.895Z,7.93
2023-04-11T20:28:15.311Z,7.07
2023-04-11T20:30:47.674Z,6.72
2023-04-11T20:33:24.443Z,9.53
2023-04-11T20:36:02.844Z,7.07
2023-04-11T20:38:37.974Z,8.15
2023-04-11T20:41:10.995Z,8.93
2023-04-11T20:43:43.358Z,5.97
2023-04-11T20:46:18.018Z,7.78
2023-04-11T20:48:53.545Z,7.75
2023-04-11T20:51:29.364Z,8.87
2023-04-11T20:54:02.516Z,11.48
2023-04-11T20:56:36.505Z,10.98
2023-04-11T20:59:12.692Z,10.52
2023-04-11T21:04:20.101Z,11.05
2023-04-11T21:06:53.761Z,13.35
2023-04-11T21:09:25.279Z,13.05
2023-04-11T21:11:57.052Z,14.13
2023-04-11T21:14:28.197Z,14.13
2023-04-11T21:16:58.816Z,12.38
2023-04-11T21:19:34.353Z,16.73
2023-04-11T21:22:08.395Z,14.07
2023-04-11T21:24:42.214Z,13.38
2023-04-11T21:27:13.694Z,16.17
2023-04-11T21:29:45.090Z,17.25
2023-04-11T21:32:16.653Z,14.57
2023-04-11T21:34:48.533Z,14.65
2023-04-11T21:37:20.500Z,16.65
2023-04-11T21:39:55.700Z,16.65
2023-04-11T21:42:27.404Z,17.58
2023-04-11T21:44:58.248Z,17.50
2023-04-11T21:47:29.123Z,17.02
2023-04-11T21:50:02.073Z,19.95
2023-04-11T21:52:34.107Z,15.15
2023-04-11T21:55:08.980Z,15.32
2023-04-11T21:57:40.230Z,18.95
2023-04-11T22:00:12.619Z,18.95
2023-04-11T22:06:46.187Z,21.75
2023-04-11T22:27:05.082Z,28.65
2023-04-11T22:29:46.825Z,27.48
2023-04-11T22:32:18.160Z,28.13
2023-04-11T22:34:55.865Z,28.83
2023-04-11T22:37:42.319Z,28.33
2023-04-11T22:40:30.932Z,28.48
2023-04-11T22:43:11.829Z,25.98
2023-04-11T22:45:45.055Z,24.20
2023-04-11T22:55:08.410Z,27.02
2023-04-11T22:59:29.841Z,31.58
2023-04-11T23:02:25.258Z,26.45
2023-04-11T23:05:07.271Z,31.67
2023-04-11T23:07:58.407Z,29.27
2023-04-11T23:10:28.998Z,33.95
2023-04-11T23:12:59.341Z,32.25
2023-04-11T23:15:31.901Z,30.83
2023-04-11T23:18:02.342Z,31.27
2023-04-11T23:20:37.116Z,37.25
2023-04-11T23:23:07.420Z,31.52
2023-04-11T23:25:40.823Z,37.25
2023-04-11T23:28:11.178Z,40.15
2023-04-11T23:30:44.286Z,38.45
2023-04-11T23:33:15.427Z,35.58
2023-04-11T23:35:47.015Z,36.85
2023-04-11T23:38:17.606Z,34.63
2023-04-11T23:40:48.111Z,40.70
2023-04-11T23:43:18.395Z,41.53
2023-04-11T23:45:50.925Z,35.15
2023-04-11T23:48:21.376Z,39.13
2023-04-11T23:51:13.316Z,39.25
2023-04-11T23:53:45.711Z,34.53
2023-04-11T23:56:16.965Z,33.22
2023-04-11T23:58:47.224Z,39.47
